createdAt,value
2019-05-01T00:00:25.624Z,1001.56
2019-05-01T00:01:25.834Z,1001.60
2019-05-01T00:02:26.021Z,1001.64
2019-05-01T00:03:26.196Z,1001.63
2019-05-01T00:04:26.366Z,1001.61
2019-05-01T00:05:26.570Z,1001.61
2019-05-01T00:06:26.741Z,1001.69
2019-05-01T00:07:26.894Z,1001.67
2019-05-01T00:08:27.041Z,1001.71
2019-05-01T00:09:27.192Z,1001.67
2019-05-01T00:10:27.402Z,1001.73
2019-05-01T00:11:27.562Z,1001.65
2019-05-01T00:12:27.703Z,1001.73
2019-05-01T00:13:27.853Z,1001.67
2019-05-01T00:14:27.977Z,1001.73
2019-05-01T00:15:28.105Z,1001.70
2019-05-01T00:16:28.256Z,1001.68
2019-05-01T00:17:28.410Z,1001.65
2019-05-01T00:18:28.579Z,1001.58
2019-05-01T00:19:28.714Z,1001.65
2019-05-01T00:20:29.533Z,1001.57
2019-05-01T00:21:29.544Z,1001.59
2019-05-01T00:22:29.286Z,1001.53
2019-05-01T00:23:29.474Z,1001.53
2019-05-01T00:24:30.521Z,1001.59
2019-05-01T00:25:30.533Z,1001.60
2019-05-01T00:26:29.942Z,1001.57
2019-05-01T00:27:30.087Z,1001.62
2019-05-01T00:28:30.235Z,1001.59
2019-05-01T00:29:30.352Z,1001.61
2019-05-01T00:30:30.513Z,1001.57
2019-05-01T00:31:30.677Z,1001.55
2019-05-01T00:32:30.858Z,1001.54
2019-05-01T00:33:30.995Z,1001.50
2019-05-01T00:34:32.040Z,1001.48
2019-05-01T00:35:31.303Z,1001.48
2019-05-01T00:36:31.450Z,1001.44
2019-05-01T00:37:31.612Z,1001.43
2019-05-01T00:38:31.765Z,1001.45
2019-05-01T00:39:31.893Z,1001.42
2019-05-01T00:40:32.046Z,1001.42
2019-05-01T00:41:33.038Z,1001.43
2019-05-01T00:42:32.401Z,1001.42
2019-05-01T00:43:32.588Z,1001.41
2019-05-01T00:44:32.733Z,1001.43
2019-05-01T00:45:32.861Z,1001.43
2019-05-01T00:46:33.038Z,1001.47
2019-05-01T00:47:33.155Z,1001.44
2019-05-01T00:48:34.335Z,1001.46
2019-05-01T00:49:34.032Z,1001.44
2019-05-01T00:50:33.651Z,1001.42
2019-05-01T00:51:34.911Z,1001.36
2019-05-01T00:52:34.020Z,1001.34
2019-05-01T00:53:34.200Z,1001.35
2019-05-01T00:54:34.553Z,1001.33
2019-05-01T00:55:35.046Z,1001.34
2019-05-01T00:56:34.780Z,1001.34
2019-05-01T00:57:34.934Z,1001.33
2019-05-01T00:58:36.034Z,1001.35
2019-05-01T00:59:35.260Z,1001.28
2019-05-01T01:00:42.864Z,1001.27
2019-05-01T01:01:37.549Z,1001.27
2019-05-01T01:02:35.803Z,1001.27
2019-05-01T01:03:35.909Z,1001.20
2019-05-01T01:04:36.059Z,1001.18
2019-05-01T01:05:36.261Z,1001.20
2019-05-01T01:06:36.418Z,1001.20
2019-05-01T01:07:36.585Z,1001.19
2019-05-01T01:08:36.805Z,1001.19
2019-05-01T01:09:36.990Z,1001.20
2019-05-01T01:10:37.195Z,1001.10
2019-05-01T01:11:37.379Z,1001.17
2019-05-01T01:12:37.575Z,1001.14
2019-05-01T01:13:37.746Z,1001.17
2019-05-01T01:14:37.916Z,1001.13
2019-05-01T01:15:38.071Z,1001.09
2019-05-01T01:16:38.245Z,1001.08
2019-05-01T01:17:38.374Z,1001.12
2019-05-01T01:18:38.523Z,1001.08
2019-05-01T01:19:38.692Z,1001.09
2019-05-01T01:20:38.868Z,1001.11
2019-05-01T01:21:39.033Z,1001.09
2019-05-01T01:22:39.187Z,1001.07
2019-05-01T01:23:39.375Z,1001.06
2019-05-01T01:24:39.546Z,1001.06
2019-05-01T01:25:39.724Z,1001.04
2019-05-01T01:26:39.907Z,1001.11
2019-05-01T01:27:40.068Z,1001.11
2019-05-01T01:28:40.229Z,1001.06
2019-05-01T01:29:40.390Z,1001.06
2019-05-01T01:30:40.580Z,1001.06
2019-05-01T01:31:40.786Z,1001.04
2019-05-01T01:32:40.937Z,1001.06
2019-05-01T01:33:41.098Z,1001.12
2019-05-01T01:34:41.249Z,1001.08
2019-05-01T01:35:42.056Z,1001.12
2019-05-01T01:36:41.628Z,1001.02
2019-05-01T01:37:41.826Z,1001.00
2019-05-01T01:38:42.017Z,1001.04
2019-05-01T01:39:43.027Z,1001.01
2019-05-01T01:40:42.339Z,1001.05
2019-05-01T01:41:42.540Z,1000.95
2019-05-01T01:42:43.535Z,1000.97
2019-05-01T01:43:42.943Z,1000.96
2019-05-01T01:44:43.089Z,1000.98
2019-05-01T01:45:44.032Z,1000.98
2019-05-01T01:46:43.496Z,1000.90
2019-05-01T01:47:44.059Z,1000.93
2019-05-01T01:48:43.864Z,1000.90
2019-05-01T01:49:44.077Z,1000.93
2019-05-01T01:50:44.255Z,1000.84
2019-05-01T01:51:44.420Z,1000.85
2019-05-01T01:52:44.647Z,1000.90
2019-05-01T01:53:44.815Z,1000.82
2019-05-01T01:54:45.531Z,1000.87
2019-05-01T01:55:45.149Z,1000.89
2019-05-01T01:56:45.330Z,1000.88
2019-05-01T01:57:45.505Z,1000.84
2019-05-01T01:58:46.533Z,1000.88
2019-05-01T01:59:45.961Z,1000.84
2019-05-01T02:00:47.045Z,1000.80
2019-05-01T02:01:47.036Z,1000.91
2019-05-01T02:02:47.031Z,1000.84
2019-05-01T02:03:46.650Z,1000.74
2019-05-01T02:04:46.830Z,1000.79
2019-05-01T02:05:47.015Z,1000.85
2019-05-01T02:06:47.157Z,1000.83
2019-05-01T02:07:47.320Z,1000.84
2019-05-01T02:08:56.203Z,1000.76
2019-05-01T02:09:50.541Z,1000.85
2019-05-01T02:10:47.866Z,1000.85
2019-05-01T02:11:48.030Z,1000.85
2019-05-01T02:12:49.029Z,1000.80
2019-05-01T02:13:48.430Z,1000.77
2019-05-01T02:14:48.570Z,1000.79
2019-05-01T02:15:48.722Z,1000.78
2019-05-01T02:16:48.867Z,1000.77
2019-05-01T02:17:49.022Z,1000.82
2019-05-01T02:18:49.201Z,1000.84
2019-05-01T02:19:49.358Z,1000.83
2019-05-01T02:20:49.514Z,1000.81
2019-05-01T02:21:49.676Z,1000.83
2019-05-01T02:22:49.809Z,1000.83
2019-05-01T02:23:50.004Z,1000.80
2019-05-01T02:24:50.151Z,1000.85
2019-05-01T02:25:50.288Z,1000.82
2019-05-01T02:26:50.436Z,1000.87
2019-05-01T02:27:50.582Z,1000.84
2019-05-01T02:28:50.723Z,1000.79
2019-05-01T02:29:50.883Z,1000.87
2019-05-01T02:30:51.010Z,1000.85
2019-05-01T02:31:51.165Z,1000.82
2019-05-01T02:32:52.048Z,1000.89
2019-05-01T02:33:52.055Z,1000.81
2019-05-01T02:34:51.761Z,1000.83
2019-05-01T02:35:52.548Z,1000.87
2019-05-01T02:36:52.076Z,1000.89
2019-05-01T02:37:52.205Z,1000.86
2019-05-01T02:38:52.407Z,1000.83
2019-05-01T02:39:52.567Z,1000.86
2019-05-01T02:40:52.726Z,1000.87
2019-05-01T02:41:52.870Z,1000.89
2019-05-01T02:42:53.028Z,1000.84
2019-05-01T02:43:53.220Z,1000.81
2019-05-01T02:44:53.378Z,1000.84
2019-05-01T02:45:53.522Z,1000.84
2019-05-01T02:46:54.706Z,1000.83
2019-05-01T02:47:53.815Z,1000.91
2019-05-01T02:48:53.927Z,1000.88
2019-05-01T02:49:54.092Z,1000.87
2019-05-01T02:50:54.245Z,1000.92
2019-05-01T02:51:54.375Z,1000.93
2019-05-01T02:52:54.527Z,1000.91
2019-05-01T02:53:54.739Z,1000.91
2019-05-01T02:54:54.916Z,1000.91
2019-05-01T02:55:55.039Z,1000.88
2019-05-01T02:56:55.158Z,1000.84
2019-05-01T02:57:55.302Z,1000.86
2019-05-01T02:58:56.036Z,1000.88
2019-05-01T02:59:56.053Z,1000.91
2019-05-01T03:00:55.822Z,1000.83
2019-05-01T03:01:56.536Z,1000.82
2019-05-01T03:02:56.187Z,1000.83
2019-05-01T03:03:56.360Z,1000.81
2019-05-01T03:04:56.537Z,1000.84
2019-05-01T03:05:56.730Z,1000.74
2019-05-01T03:06:56.864Z,1000.76
2019-05-01T03:07:57.021Z,1000.75
2019-05-01T03:08:57.183Z,1000.76
2019-05-01T03:09:57.321Z,1000.72
2019-05-01T03:10:57.489Z,1000.71
2019-05-01T03:11:57.638Z,1000.72
2019-05-01T03:12:57.773Z,1000.68
2019-05-01T03:13:57.921Z,1000.68
2019-05-01T03:14:58.066Z,1000.65
2019-05-01T03:15:58.554Z,1000.64
2019-05-01T03:16:58.450Z,1000.67
2019-05-01T03:17:58.585Z,1000.66
2019-05-01T03:18:58.692Z,1000.63
2019-05-01T03:19:58.807Z,1000.69
2019-05-01T03:20:59.086Z,1000.63
2019-05-01T03:21:59.223Z,1000.63
2019-05-01T03:22:59.391Z,1000.67
2019-05-01T03:23:59.519Z,1000.64
2019-05-01T03:25:00.554Z,1000.65
2019-05-01T03:25:59.784Z,1000.64
2019-05-01T03:26:59.941Z,1000.65
2019-05-01T03:28:00.081Z,1000.63
2019-05-01T03:29:00.211Z,1000.59
2019-05-01T03:30:00.342Z,1000.59
2019-05-01T03:31:00.481Z,1000.66
2019-05-01T03:32:17.231Z,1000.63
2019-05-01T03:33:02.880Z,1000.70
2019-05-01T03:34:00.988Z,1000.71
2019-05-01T03:35:01.144Z,1000.70
2019-05-01T03:36:01.284Z,1000.67
2019-05-01T03:37:01.436Z,1000.72
2019-05-01T03:38:01.588Z,1000.69
2019-05-01T03:39:01.753Z,1000.69
2019-05-01T03:40:01.922Z,1000.61
2019-05-01T03:41:02.089Z,1000.62
2019-05-01T03:42:02.259Z,1000.66
2019-05-01T03:43:02.480Z,1000.67
2019-05-01T03:44:03.550Z,1000.69
2019-05-01T03:45:02.768Z,1000.66
2019-05-01T03:46:03.921Z,1000.62
2019-05-01T03:47:03.152Z,1000.66
2019-05-01T03:48:03.324Z,1000.62
2019-05-01T03:49:03.490Z,1000.62
2019-05-01T03:50:03.634Z,1000.63
2019-05-01T03:51:03.755Z,1000.62
2019-05-01T03:52:04.905Z,1000.58
2019-05-01T03:53:04.057Z,1000.63
2019-05-01T03:54:04.253Z,1000.61
2019-05-01T03:55:04.432Z,1000.58
2019-05-01T03:56:04.591Z,1000.59
2019-05-01T03:57:04.762Z,1000.59
2019-05-01T03:58:04.915Z,1000.61
2019-05-01T03:59:05.546Z,1000.59
2019-05-01T04:00:05.296Z,1000.55
2019-05-01T04:01:05.461Z,1000.60
2019-05-01T04:02:05.613Z,1000.57
2019-05-01T04:03:05.745Z,1000.56
2019-05-01T04:04:05.916Z,1000.58
2019-05-01T04:05:06.043Z,1000.57
2019-05-01T04:06:07.049Z,1000.61
2019-05-01T04:07:06.427Z,1000.51
2019-05-01T04:08:06.543Z,1000.55
2019-05-01T04:09:06.702Z,1000.54
2019-05-01T04:10:06.852Z,1000.56
2019-05-01T04:11:06.997Z,1000.56
2019-05-01T04:12:07.169Z,1000.53
2019-05-01T04:13:07.324Z,1000.54
2019-05-01T04:14:07.466Z,1000.58
2019-05-01T04:15:08.621Z,1000.54
2019-05-01T04:16:08.553Z,1000.54
2019-05-01T04:17:07.897Z,1000.52
2019-05-01T04:18:08.563Z,1000.56
2019-05-01T04:19:08.153Z,1000.60
2019-05-01T04:20:08.327Z,1000.63
2019-05-01T04:21:08.487Z,1000.58
2019-05-01T04:22:08.629Z,1000.61
2019-05-01T04:23:08.766Z,1000.64
2019-05-01T04:24:08.914Z,1000.63
2019-05-01T04:25:09.549Z,1000.68
2019-05-01T04:26:09.274Z,1000.71
2019-05-01T04:27:09.398Z,1000.66
2019-05-01T04:28:09.527Z,1000.66
2019-05-01T04:29:09.652Z,1000.79
2019-05-01T04:30:09.831Z,1000.72
2019-05-01T04:31:09.969Z,1000.68
2019-05-01T04:32:10.112Z,1000.68
2019-05-01T04:33:10.221Z,1000.66
2019-05-01T04:34:10.348Z,1000.65
2019-05-01T04:35:10.498Z,1000.71
2019-05-01T04:36:10.645Z,1000.63
2019-05-01T04:37:10.790Z,1000.66
2019-05-01T04:38:10.968Z,1000.66
2019-05-01T04:39:12.051Z,1000.66
2019-05-01T04:40:11.313Z,1000.74
2019-05-01T04:41:11.455Z,1000.68
2019-05-01T04:42:11.611Z,1000.65
2019-05-01T04:43:12.546Z,1000.68
2019-05-01T04:44:11.908Z,1000.70
2019-05-01T04:45:12.165Z,1000.60
2019-05-01T04:46:12.341Z,1000.66
2019-05-01T04:47:12.465Z,1000.65
2019-05-01T04:48:13.548Z,1000.63
2019-05-01T04:49:12.766Z,1000.64
2019-05-01T04:50:12.908Z,1000.73
2019-05-01T04:51:13.063Z,1000.66
2019-05-01T04:52:13.208Z,1000.70
2019-05-01T04:53:13.345Z,1000.70
2019-05-01T04:54:13.468Z,1000.73
2019-05-01T04:55:13.590Z,1000.67
2019-05-01T04:56:13.779Z,1000.59
2019-05-01T04:57:13.894Z,1000.62
2019-05-01T04:58:14.174Z,1000.69
2019-05-01T04:59:14.318Z,1000.67
2019-05-01T05:00:14.463Z,1000.69
2019-05-01T05:01:15.545Z,1000.63
2019-05-01T05:02:14.822Z,1000.62
2019-05-01T05:03:14.957Z,1000.67
2019-05-01T05:04:16.048Z,1000.62
2019-05-01T05:05:16.044Z,1000.61
2019-05-01T05:06:15.395Z,1000.63
2019-05-01T05:07:15.670Z,1000.56
2019-05-01T05:08:15.783Z,1000.60
2019-05-01T05:09:16.911Z,1000.62
2019-05-01T05:10:16.131Z,1000.59
2019-05-01T05:11:16.368Z,1000.63
2019-05-01T05:12:16.561Z,1000.62
2019-05-01T05:13:16.672Z,1000.65
2019-05-01T05:14:16.889Z,1000.65
2019-05-01T05:15:18.048Z,1000.57
2019-05-01T05:16:17.279Z,1000.67
2019-05-01T05:17:17.450Z,1000.69
2019-05-01T05:18:17.612Z,1000.68
2019-05-01T05:19:17.726Z,1000.65
2019-05-01T05:20:17.966Z,1000.70
2019-05-01T05:21:19.043Z,1000.77
2019-05-01T05:22:18.398Z,1000.68
2019-05-01T05:23:18.552Z,1000.66
2019-05-01T05:24:19.550Z,1000.68
2019-05-01T05:25:18.907Z,1000.64
2019-05-01T05:26:19.020Z,1000.63
2019-05-01T05:27:19.141Z,1000.70
2019-05-01T05:28:19.398Z,1000.72
2019-05-01T05:29:20.050Z,1000.62
2019-05-01T05:30:19.673Z,1000.62
2019-05-01T05:31:19.798Z,1000.66
2019-05-01T05:32:19.919Z,1000.62
2019-05-01T05:33:20.061Z,1000.64
2019-05-01T05:34:20.158Z,1000.67
2019-05-01T05:35:21.054Z,1000.61
2019-05-01T05:36:20.410Z,1000.67
2019-05-01T05:37:20.543Z,1000.58
2019-05-01T05:38:21.056Z,1000.57
2019-05-01T05:39:21.547Z,1000.57
2019-05-01T05:40:21.541Z,1000.68
2019-05-01T05:41:22.302Z,1000.63
2019-05-01T05:42:21.409Z,1000.63
2019-05-01T05:43:22.060Z,1000.62
2019-05-01T05:44:21.846Z,1000.69
2019-05-01T05:45:21.990Z,1000.65
2019-05-01T05:46:22.120Z,1000.65
2019-05-01T05:47:22.264Z,1000.67
2019-05-01T05:48:22.421Z,1000.69
2019-05-01T05:49:22.639Z,1000.68
2019-05-01T05:50:22.793Z,1000.65
2019-05-01T05:51:22.929Z,1000.62
2019-05-01T05:52:23.174Z,1000.62
2019-05-01T05:53:23.316Z,1000.64
2019-05-01T05:54:23.481Z,1000.65
2019-05-01T05:55:23.628Z,1000.61
2019-05-01T05:56:23.768Z,1000.62
2019-05-01T05:57:23.898Z,1000.60
2019-05-01T05:58:24.122Z,1000.55
2019-05-01T05:59:24.268Z,1000.57
2019-05-01T06:00:24.413Z,1000.63
2019-05-01T06:01:24.550Z,1000.62
2019-05-01T06:02:24.659Z,1000.57
2019-05-01T06:03:31.004Z,1000.59
2019-05-01T06:04:27.127Z,1000.56
2019-05-01T06:05:25.354Z,1000.56
2019-05-01T06:06:25.484Z,1000.55
2019-05-01T06:07:25.607Z,1000.52
2019-05-01T06:08:25.728Z,1000.58
2019-05-01T06:09:25.856Z,1000.54
2019-05-01T06:10:26.000Z,1000.55
2019-05-01T06:11:29.665Z,1000.59
2019-05-01T06:12:28.271Z,1000.60
2019-05-01T06:13:26.476Z,1000.63
2019-05-01T06:14:26.929Z,1000.60
2019-05-01T06:15:27.865Z,1000.49
2019-05-01T06:16:27.066Z,1000.57
2019-05-01T06:17:28.471Z,1000.45
2019-05-01T06:18:28.517Z,1000.42
2019-05-01T06:19:27.722Z,1000.44
2019-05-01T06:20:27.939Z,1000.53
2019-05-01T06:21:28.101Z,1000.54
2019-05-01T06:22:28.229Z,1000.48
2019-05-01T06:23:28.360Z,1000.60
2019-05-01T06:24:28.489Z,1000.54
2019-05-01T06:25:28.636Z,1000.50
2019-05-01T06:26:32.082Z,1000.38
2019-05-01T06:27:31.010Z,1000.45
2019-05-01T06:28:29.656Z,1000.40
2019-05-01T06:29:30.926Z,1000.36
2019-05-01T06:30:30.574Z,1000.40
2019-05-01T06:31:29.774Z,1000.38
2019-05-01T06:32:33.421Z,1000.40
2019-05-01T06:33:43.690Z,1000.46
2019-05-01T06:34:31.279Z,1000.47
2019-05-01T06:35:34.122Z,1000.44
2019-05-01T06:36:31.728Z,1000.40
2019-05-01T06:37:30.844Z,1000.45
2019-05-01T06:38:31.594Z,1000.43
2019-05-01T06:39:32.179Z,1000.41
2019-05-01T06:40:31.381Z,1000.44
2019-05-01T06:41:33.813Z,1000.42
2019-05-01T06:42:32.747Z,1000.40
2019-05-01T06:43:32.007Z,1000.44
2019-05-01T06:44:33.618Z,1000.46
2019-05-01T06:45:34.381Z,1000.38
2019-05-01T06:46:35.354Z,1000.45
2019-05-01T06:47:32.777Z,1000.39
2019-05-01T06:48:33.434Z,1000.45
2019-05-01T06:49:34.261Z,1000.47
2019-05-01T06:50:37.097Z,1000.43
2019-05-01T06:51:34.599Z,1000.44
2019-05-01T06:52:33.823Z,1000.45
2019-05-01T06:53:36.132Z,1000.38
2019-05-01T06:54:36.103Z,1000.45
2019-05-01T06:55:35.051Z,1000.34
2019-05-01T06:56:34.553Z,1000.32
2019-05-01T06:57:38.425Z,1000.40
2019-05-01T06:58:36.544Z,1000.34
2019-05-01T06:59:35.036Z,1000.37
2019-05-01T07:00:39.135Z,1000.36
2019-05-01T07:01:36.416Z,1000.37
2019-05-01T07:02:36.898Z,1000.30
2019-05-01T07:03:35.885Z,1000.31
2019-05-01T07:04:37.954Z,1000.27
2019-05-01T07:05:37.230Z,1000.24
2019-05-01T07:06:36.332Z,1000.21
2019-05-01T07:07:36.470Z,1000.25
2019-05-01T07:08:39.495Z,1000.26
2019-05-01T07:09:37.791Z,1000.23
2019-05-01T07:10:44.270Z,1000.27
2019-05-01T07:11:42.181Z,1000.18
2019-05-01T07:12:37.367Z,1000.17
2019-05-01T07:13:39.987Z,1000.18
2019-05-01T07:14:38.754Z,1000.18
2019-05-01T07:15:37.966Z,1000.17
2019-05-01T07:16:39.310Z,1000.11
2019-05-01T07:17:38.353Z,1000.16
2019-05-01T07:18:38.488Z,1000.07
2019-05-01T07:19:40.263Z,1000.04
2019-05-01T07:20:39.860Z,1000.03
2019-05-01T07:21:39.085Z,1000.07
2019-05-01T07:22:42.340Z,1000.05
2019-05-01T07:23:40.369Z,1000.07
2019-05-01T07:24:40.068Z,1000.02
2019-05-01T07:25:40.673Z,999.99
2019-05-01T07:26:43.820Z,999.99
2019-05-01T07:27:42.057Z,999.95
2019-05-01T07:28:40.392Z,1000.00
2019-05-01T07:29:44.856Z,999.90
2019-05-01T07:30:41.700Z,999.89
2019-05-01T07:31:41.798Z,999.94
2019-05-01T07:32:42.701Z,999.95
2019-05-01T07:33:42.145Z,999.88
2019-05-01T07:34:41.284Z,999.85
2019-05-01T07:35:41.461Z,999.86
2019-05-01T07:36:41.611Z,999.81
2019-05-01T07:37:41.753Z,999.90
2019-05-01T07:38:41.913Z,999.87
2019-05-01T07:39:44.897Z,999.78
2019-05-01T07:40:44.570Z,999.79
2019-05-01T07:41:42.547Z,999.76
2019-05-01T07:42:43.661Z,999.78
2019-05-01T07:43:43.828Z,999.74
2019-05-01T07:44:42.960Z,999.79
2019-05-01T07:45:43.591Z,999.68
2019-05-01T07:46:48.932Z,999.60
2019-05-01T07:47:45.063Z,999.64
2019-05-01T07:48:43.683Z,999.59
2019-05-01T07:49:47.772Z,999.58
2019-05-01T07:50:45.560Z,999.55
2019-05-01T07:51:44.199Z,999.51
2019-05-01T07:52:47.807Z,999.50
2019-05-01T07:53:45.597Z,999.52
2019-05-01T07:54:47.108Z,999.50
2019-05-01T07:55:48.597Z,999.53
2019-05-01T07:56:46.215Z,999.45
2019-05-01T07:57:46.063Z,999.49
2019-05-01T07:58:47.532Z,999.41
2019-05-01T07:59:47.797Z,999.46
2019-05-01T08:00:46.061Z,999.41
2019-05-01T08:01:49.932Z,999.31
2019-05-01T08:02:46.396Z,999.34
2019-05-01T08:03:46.554Z,999.33
2019-05-01T08:04:46.696Z,999.34
2019-05-01T08:05:46.976Z,999.35
2019-05-01T08:06:47.022Z,999.35
2019-05-01T08:07:47.209Z,999.23
2019-05-01T08:08:47.585Z,999.22
2019-05-01T08:09:50.237Z,999.24
2019-05-01T08:10:48.654Z,999.25
2019-05-01T08:11:47.801Z,999.18
2019-05-01T08:12:47.935Z,999.21
2019-05-01T08:13:48.110Z,999.13
2019-05-01T08:14:52.425Z,999.25
2019-05-01T08:15:49.416Z,999.22
2019-05-01T08:16:49.619Z,999.23
2019-05-01T08:17:53.080Z,999.21
2019-05-01T08:18:49.923Z,999.25
2019-05-01T08:19:49.167Z,999.23
2019-05-01T08:20:50.416Z,999.21
2019-05-01T08:21:50.481Z,999.26
2019-05-01T08:22:49.609Z,999.14
2019-05-01T08:23:49.753Z,999.22
2019-05-01T08:24:53.905Z,999.18
2019-05-01T08:25:51.079Z,999.25
2019-05-01T08:26:50.193Z,999.16
2019-05-01T08:27:50.997Z,999.18
2019-05-01T08:28:52.481Z,999.15
2019-05-01T08:29:50.681Z,999.09
2019-05-01T08:30:52.778Z,999.13
2019-05-01T08:31:52.594Z,999.05
2019-05-01T08:32:51.207Z,999.10
2019-05-01T08:33:51.603Z,999.09
2019-05-01T08:34:55.664Z,999.05
2019-05-01T08:35:52.817Z,999.07
2019-05-01T08:36:52.059Z,999.07
2019-05-01T08:37:53.816Z,999.09
2019-05-01T08:38:54.459Z,999.11
2019-05-01T08:39:52.541Z,999.16
2019-05-01T08:40:55.616Z,999.19
2019-05-01T08:41:53.854Z,999.20
2019-05-01T08:42:52.957Z,999.22
2019-05-01T08:43:53.926Z,999.20
2019-05-01T08:44:54.217Z,999.20
2019-05-01T08:45:53.459Z,999.22
2019-05-01T08:46:53.611Z,999.18
2019-05-01T08:47:56.732Z,999.20
2019-05-01T08:48:56.113Z,999.20
2019-05-01T08:49:54.209Z,999.26
2019-05-01T08:50:54.559Z,999.20
2019-05-01T08:51:55.494Z,999.18
2019-05-01T08:52:54.582Z,999.24
2019-05-01T08:53:57.796Z,999.22
2019-05-01T08:54:55.907Z,999.24
2019-05-01T08:55:55.017Z,999.23
2019-05-01T08:56:58.091Z,999.27
2019-05-01T08:57:56.403Z,999.24
2019-05-01T08:58:55.514Z,999.26
2019-05-01T09:00:00.249Z,999.16
2019-05-01T09:00:56.843Z,999.17
2019-05-01T09:02:09.100Z,999.14
2019-05-01T09:03:08.301Z,999.10
2019-05-01T09:03:58.369Z,999.08
2019-05-01T09:05:02.585Z,999.07
2019-05-01T09:05:59.082Z,998.94
2019-05-01T09:06:57.037Z,998.94
2019-05-01T09:07:57.783Z,998.87
2019-05-01T09:08:58.344Z,998.83
2019-05-01T09:09:57.573Z,998.75
2019-05-01T09:11:00.241Z,998.77
2019-05-01T09:11:58.829Z,998.77
2019-05-01T09:12:58.067Z,998.78
2019-05-01T09:13:59.035Z,998.84
2019-05-01T09:14:59.325Z,998.83
2019-05-01T09:15:58.581Z,998.79
2019-05-01T09:16:58.702Z,998.77
2019-05-01T09:17:59.584Z,998.74
2019-05-01T09:18:59.099Z,998.71
2019-05-01T09:19:59.234Z,998.71
2019-05-01T09:20:59.367Z,998.65
2019-05-01T09:21:59.514Z,998.62
2019-05-01T09:22:59.651Z,998.64
2019-05-01T09:23:59.793Z,998.63
2019-05-01T09:25:00.310Z,998.64
2019-05-01T09:26:01.158Z,998.62
2019-05-01T09:27:00.388Z,998.47
2019-05-01T09:28:04.265Z,998.50
2019-05-01T09:29:02.647Z,998.47
2019-05-01T09:30:00.834Z,998.34
2019-05-01T09:31:02.157Z,998.34
2019-05-01T09:32:04.990Z,998.26
2019-05-01T09:33:03.378Z,998.28
2019-05-01T09:34:01.613Z,998.25
2019-05-01T09:35:14.596Z,998.16
2019-05-01T09:36:02.919Z,998.16
2019-05-01T09:37:02.035Z,998.05
2019-05-01T09:38:02.195Z,998.11
2019-05-01T09:39:02.345Z,998.07
2019-05-01T09:40:04.205Z,998.07
2019-05-01T09:41:04.734Z,997.98
2019-05-01T09:42:06.432Z,997.96
2019-05-01T09:43:02.969Z,997.93
2019-05-01T09:44:05.768Z,997.89
2019-05-01T09:45:05.241Z,997.91
2019-05-01T09:46:03.495Z,997.89
2019-05-01T09:47:03.657Z,997.88
2019-05-01T09:48:03.837Z,997.86
2019-05-01T09:49:04.027Z,997.82
2019-05-01T09:50:04.245Z,997.77
2019-05-01T09:51:05.382Z,997.84
2019-05-01T09:52:05.667Z,997.77
2019-05-01T09:53:04.794Z,997.72
2019-05-01T09:54:09.556Z,997.73
2019-05-01T09:55:06.229Z,997.75
2019-05-01T09:56:07.781Z,997.72
2019-05-01T09:57:06.537Z,997.73
2019-05-01T09:58:05.747Z,997.64
2019-05-01T09:59:05.948Z,997.65
2019-05-01T10:00:06.126Z,997.57
2019-05-01T10:01:06.304Z,997.60
2019-05-01T10:02:07.800Z,997.56
2019-05-01T10:03:07.625Z,997.58
2019-05-01T10:04:06.737Z,997.45
2019-05-01T10:05:07.896Z,997.48
2019-05-01T10:06:07.181Z,997.49
2019-05-01T10:07:07.338Z,997.40
2019-05-01T10:08:07.523Z,997.48
2019-05-01T10:09:11.706Z,997.51
2019-05-01T10:10:07.855Z,997.45
2019-05-01T10:11:08.030Z,997.43
2019-05-01T10:12:11.629Z,997.46
2019-05-01T10:13:09.408Z,997.36
2019-05-01T10:14:08.535Z,997.43
2019-05-01T10:15:08.718Z,997.43
2019-05-01T10:16:08.876Z,997.35
2019-05-01T10:17:09.031Z,997.31
2019-05-01T10:18:09.198Z,997.37
2019-05-01T10:19:09.336Z,997.29
2019-05-01T10:20:10.110Z,997.30
2019-05-01T10:21:09.625Z,997.28
2019-05-01T10:22:09.795Z,997.26
2019-05-01T10:23:13.425Z,997.27
2019-05-01T10:24:11.130Z,997.18
2019-05-01T10:25:12.366Z,997.18
2019-05-01T10:26:11.541Z,997.15
2019-05-01T10:27:10.706Z,997.21
2019-05-01T10:28:12.872Z,997.18
2019-05-01T10:29:13.036Z,997.17
2019-05-01T10:30:11.154Z,997.05
2019-05-01T10:31:13.194Z,997.02
2019-05-01T10:32:11.475Z,997.04
2019-05-01T10:33:11.655Z,996.99
2019-05-01T10:34:11.818Z,996.98
2019-05-01T10:35:14.168Z,997.01
2019-05-01T10:36:18.781Z,997.00
2019-05-01T10:37:14.309Z,997.00
2019-05-01T10:38:12.444Z,996.99
2019-05-01T10:39:15.961Z,997.06
2019-05-01T10:40:13.722Z,997.01
2019-05-01T10:41:13.608Z,996.97
2019-05-01T10:42:12.978Z,996.96
2019-05-01T10:43:13.145Z,996.91
2019-05-01T10:44:13.299Z,996.99
2019-05-01T10:45:13.451Z,996.94
2019-05-01T10:46:13.644Z,996.97
2019-05-01T10:47:13.793Z,996.98
2019-05-01T10:48:13.925Z,996.94
2019-05-01T10:49:14.069Z,996.99
2019-05-01T10:50:14.191Z,996.95
2019-05-01T10:51:14.356Z,996.84
2019-05-01T10:52:14.708Z,996.87
2019-05-01T10:53:14.623Z,996.88
2019-05-01T10:54:14.857Z,996.85
2019-05-01T10:55:14.986Z,996.83
2019-05-01T10:56:15.144Z,996.91
2019-05-01T10:57:15.282Z,996.89
2019-05-01T10:58:17.931Z,996.94
2019-05-01T10:59:17.108Z,996.89
2019-05-01T11:00:15.718Z,996.88
2019-05-01T11:01:15.896Z,996.95
2019-05-01T11:02:16.034Z,996.92
2019-05-01T11:03:16.192Z,996.92
2019-05-01T11:04:16.637Z,996.88
2019-05-01T11:05:16.522Z,996.87
2019-05-01T11:06:16.669Z,996.89
2019-05-01T11:07:16.821Z,996.91
2019-05-01T11:08:17.626Z,996.81
2019-05-01T11:09:17.262Z,996.82
2019-05-01T11:10:18.409Z,996.84
2019-05-01T11:11:18.638Z,996.80
2019-05-01T11:12:17.883Z,996.74
2019-05-01T11:13:18.079Z,996.79
2019-05-01T11:14:18.264Z,996.80
2019-05-01T11:15:18.429Z,996.82
2019-05-01T11:16:18.607Z,996.76
2019-05-01T11:17:18.771Z,996.77
2019-05-01T11:18:19.630Z,996.76
2019-05-01T11:19:19.198Z,996.85
2019-05-01T11:20:19.339Z,996.76
2019-05-01T11:21:19.517Z,996.69
2019-05-01T11:22:19.663Z,996.66
2019-05-01T11:23:19.828Z,996.77
2019-05-01T11:24:20.033Z,996.73
2019-05-01T11:25:20.635Z,996.70
2019-05-01T11:26:20.407Z,996.71
2019-05-01T11:27:20.551Z,996.69
2019-05-01T11:28:20.693Z,996.72
2019-05-01T11:29:21.630Z,996.67
2019-05-01T11:30:21.029Z,996.63
2019-05-01T11:31:21.166Z,996.64
2019-05-01T11:32:21.323Z,996.64
2019-05-01T11:33:23.955Z,996.63
2019-05-01T11:34:22.665Z,996.64
2019-05-01T11:35:22.138Z,996.66
2019-05-01T11:36:21.917Z,996.64
2019-05-01T11:37:22.038Z,996.61
2019-05-01T11:38:22.203Z,996.59
2019-05-01T11:39:22.356Z,996.58
2019-05-01T11:40:22.642Z,996.58
2019-05-01T11:41:22.657Z,996.51
2019-05-01T11:42:22.841Z,996.48
2019-05-01T11:43:22.996Z,996.47
2019-05-01T11:44:23.166Z,996.49
2019-05-01T11:45:23.356Z,996.45
2019-05-01T11:46:23.526Z,996.48
2019-05-01T11:47:24.682Z,996.46
2019-05-01T11:48:25.105Z,996.36
2019-05-01T11:49:26.094Z,996.40
2019-05-01T11:50:24.334Z,996.47
2019-05-01T11:51:24.464Z,996.37
2019-05-01T11:52:24.598Z,996.45
2019-05-01T11:53:24.743Z,996.42
2019-05-01T11:54:24.896Z,996.46
2019-05-01T11:55:25.056Z,996.42
2019-05-01T11:56:25.200Z,996.37
2019-05-01T11:57:25.328Z,996.38
2019-05-01T11:58:25.481Z,996.39
2019-05-01T11:59:25.628Z,996.40
2019-05-01T12:00:25.840Z,996.43
2019-05-01T12:01:26.011Z,996.39
2019-05-01T12:02:26.191Z,996.39
2019-05-01T12:03:26.348Z,996.38
2019-05-01T12:04:26.501Z,996.34
2019-05-01T12:05:26.670Z,996.34
2019-05-01T12:06:26.861Z,996.33
2019-05-01T12:07:27.041Z,996.40
2019-05-01T12:08:27.197Z,996.41
2019-05-01T12:09:27.365Z,996.35
2019-05-01T12:10:27.529Z,996.28
2019-05-01T12:11:27.686Z,996.34
2019-05-01T12:12:27.824Z,996.29
2019-05-01T12:13:27.985Z,996.26
2019-05-01T12:14:28.126Z,996.25
2019-05-01T12:15:28.249Z,996.25
2019-05-01T12:16:28.650Z,996.31